Terminal Aerodrome Forecast
Issued by NWS

Home | Current Version | Previous Version | Text Only | Print | Product List | Glossary On
Versions: 1 2 3 4 5 6 7 8 9 10 11 12 13 14 15 16 17 18 19 20 21
920
FTAK31 PAJN 181136
TAFAPG
TAF
PAPG 181136Z 1812/1912 10004KT P6SM -RA BKN005 OVC050
      TEMPO 1812/1816 1SM -RA BR BKN004 OVC007
     FM181600 10006KT 1SM -RA BR OVC004 WS020/13045KT
     FM190300 11007KT 4SM -SHRA BR SCT010 OVC025 WS020/14040KT
     FM190800 15004KT 3SM -SHRA BR BKN007 OVC015
      AMD LTD TO CLD VIS AND WIND 1812/1815=

USA.gov is the U.S. government's official web portal to all federal, state and local government web resources and services.